sensor_id;sensor_type;location;lat;lon;timestamp;temperature;humidity
9057;DHT22;4563;54.756;9.400;2023-05-18T00:02:26;12.00;52.70
9057;DHT22;4563;54.756;9.400;2023-05-18T00:04:53;11.90;52.80
9057;DHT22;4563;54.756;9.400;2023-05-18T00:07:20;12.00;52.90
9057;DHT22;4563;54.756;9.400;2023-05-18T00:09:48;11.90;52.80
9057;DHT22;4563;54.756;9.400;2023-05-18T00:12:15;11.90;52.90
9057;DHT22;4563;54.756;9.400;2023-05-18T00:14:42;11.90;52.90
9057;DHT22;4563;54.756;9.400;2023-05-18T00:17:09;11.90;52.90
9057;DHT22;4563;54.756;9.400;2023-05-18T00:19:36;11.90;52.90
9057;DHT22;4563;54.756;9.400;2023-05-18T00:22:03;11.90;52.90
9057;DHT22;4563;54.756;9.400;2023-05-18T00:24:32;11.90;53.10
9057;DHT22;4563;54.756;9.400;2023-05-18T00:27:00;11.90;53.10
9057;DHT22;4563;54.756;9.400;2023-05-18T00:29:27;11.90;53.20
9057;DHT22;4563;54.756;9.400;2023-05-18T00:31:57;11.90;53.20
9057;DHT22;4563;54.756;9.400;2023-05-18T00:34:24;11.90;53.20
9057;DHT22;4563;54.756;9.400;2023-05-18T00:36:51;11.90;53.20
9057;DHT22;4563;54.756;9.400;2023-05-18T00:39:18;11.90;53.20
9057;DHT22;4563;54.756;9.400;2023-05-18T00:41:45;11.90;53.20
9057;DHT22;4563;54.756;9.400;2023-05-18T00:44:13;11.90;53.20
9057;DHT22;4563;54.756;9.400;2023-05-18T00:46:40;11.80;53.10
9057;DHT22;4563;54.756;9.400;2023-05-18T00:49:09;11.80;53.20
9057;DHT22;4563;54.756;9.400;2023-05-18T00:51:36;11.80;53.20
9057;DHT22;4563;54.756;9.400;2023-05-18T00:54:04;11.80;53.20
9057;DHT22;4563;54.756;9.400;2023-05-18T00:56:33;11.80;53.20
9057;DHT22;4563;54.756;9.400;2023-05-18T00:59:00;11.80;53.20
9057;DHT22;4563;54.756;9.400;2023-05-18T01:01:30;11.80;53.30
9057;DHT22;4563;54.756;9.400;2023-05-18T01:03:58;11.80;53.50
9057;DHT22;4563;54.756;9.400;2023-05-18T01:06:28;11.80;53.40
9057;DHT22;4563;54.756;9.400;2023-05-18T01:08:57;11.80;53.50
9057;DHT22;4563;54.756;9.400;2023-05-18T01:11:33;11.70;53.40
9057;DHT22;4563;54.756;9.400;2023-05-18T01:14:07;11.70;53.70
9057;DHT22;4563;54.756;9.400;2023-05-18T01:16:41;11.70;53.60
9057;DHT22;4563;54.756;9.400;2023-05-18T01:19:22;11.70;53.70
9057;DHT22;4563;54.756;9.400;2023-05-18T01:21:56;11.70;53.90
9057;DHT22;4563;54.756;9.400;2023-05-18T01:24:33;11.70;53.80
9057;DHT22;4563;54.756;9.400;2023-05-18T01:27:05;11.60;53.60
9057;DHT22;4563;54.756;9.400;2023-05-18T01:29:33;11.60;53.80
9057;DHT22;4563;54.756;9.400;2023-05-18T01:32:00;11.60;53.70
9057;DHT22;4563;54.756;9.400;2023-05-18T01:34:27;11.60;53.70
9057;DHT22;4563;54.756;9.400;2023-05-18T01:36:55;11.60;53.70
9057;DHT22;4563;54.756;9.400;2023-05-18T01:39:21;11.60;53.70
9057;DHT22;4563;54.756;9.400;2023-05-18T01:41:52;11.60;53.70
9057;DHT22;4563;54.756;9.400;2023-05-18T01:44:25;11.60;53.90
9057;DHT22;4563;54.756;9.400;2023-05-18T01:46:59;11.60;53.90
9057;DHT22;4563;54.756;9.400;2023-05-18T01:49:30;11.60;53.90
9057;DHT22;4563;54.756;9.400;2023-05-18T01:52:03;11.60;54.00
9057;DHT22;4563;54.756;9.400;2023-05-18T01:54:31;11.50;53.90
9057;DHT22;4563;54.756;9.400;2023-05-18T01:56:59;11.50;53.90
9057;DHT22;4563;54.756;9.400;2023-05-18T01:59:29;11.50;53.90
9057;DHT22;4563;54.756;9.400;2023-05-18T02:02:00;11.50;53.90
9057;DHT22;4563;54.756;9.400;2023-05-18T02:04:26;11.50;54.00
9057;DHT22;4563;54.756;9.400;2023-05-18T02:06:53;11.50;53.90
9057;DHT22;4563;54.756;9.400;2023-05-18T02:09:20;11.50;54.00
9057;DHT22;4563;54.756;9.400;2023-05-18T02:11:47;11.40;53.90
9057;DHT22;4563;54.756;9.400;2023-05-18T02:14:14;11.40;54.00
9057;DHT22;4563;54.756;9.400;2023-05-18T02:16:43;11.40;54.00
9057;DHT22;4563;54.756;9.400;2023-05-18T02:19:11;11.40;54.10
9057;DHT22;4563;54.756;9.400;2023-05-18T02:21:38;11.40;54.20
9057;DHT22;4563;54.756;9.400;2023-05-18T02:24:06;11.30;54.20
9057;DHT22;4563;54.756;9.400;2023-05-18T02:26:33;11.30;54.20
9057;DHT22;4563;54.756;9.400;2023-05-18T02:29:02;11.30;54.20
9057;DHT22;4563;54.756;9.400;2023-05-18T02:31:28;11.30;54.30
9057;DHT22;4563;54.756;9.400;2023-05-18T02:33:57;11.30;54.40
9057;DHT22;4563;54.756;9.400;2023-05-18T02:36:24;11.30;54.40
9057;DHT22;4563;54.756;9.400;2023-05-18T02:38:51;11.30;54.50
9057;DHT22;4563;54.756;9.400;2023-05-18T02:41:18;11.20;54.50
9057;DHT22;4563;54.756;9.400;2023-05-18T02:43:45;11.30;54.60
9057;DHT22;4563;54.756;9.400;2023-05-18T02:46:12;11.20;54.60
9057;DHT22;4563;54.756;9.400;2023-05-18T02:48:39;11.20;54.60
9057;DHT22;4563;54.756;9.400;2023-05-18T02:51:11;11.20;54.70
9057;DHT22;4563;54.756;9.400;2023-05-18T02:53:38;11.20;54.80
9057;DHT22;4563;54.756;9.400;2023-05-18T02:56:08;11.20;54.70
9057;DHT22;4563;54.756;9.400;2023-05-18T02:58:36;11.20;54.80
9057;DHT22;4563;54.756;9.400;2023-05-18T03:01:03;11.20;54.80
9057;DHT22;4563;54.756;9.400;2023-05-18T03:03:34;11.10;54.70
9057;DHT22;4563;54.756;9.400;2023-05-18T03:06:01;11.10;54.70
9057;DHT22;4563;54.756;9.400;2023-05-18T03:08:29;11.10;54.70
9057;DHT22;4563;54.756;9.400;2023-05-18T03:10:56;11.20;55.00
9057;DHT22;4563;54.756;9.400;2023-05-18T03:13:23;11.10;54.90
9057;DHT22;4563;54.756;9.400;2023-05-18T03:15:50;11.10;55.00
9057;DHT22;4563;54.756;9.400;2023-05-18T03:18:17;11.10;55.00
9057;DHT22;4563;54.756;9.400;2023-05-18T03:20:44;11.10;54.90
9057;DHT22;4563;54.756;9.400;2023-05-18T03:23:11;11.10;54.90
9057;DHT22;4563;54.756;9.400;2023-05-18T03:25:39;11.00;54.80
9057;DHT22;4563;54.756;9.400;2023-05-18T03:28:07;11.10;55.00
9057;DHT22;4563;54.756;9.400;2023-05-18T03:30:34;11.00;54.90
9057;DHT22;4563;54.756;9.400;2023-05-18T03:33:01;11.00;54.90
9057;DHT22;4563;54.756;9.400;2023-05-18T03:35:28;11.00;54.90
9057;DHT22;4563;54.756;9.400;2023-05-18T03:37:55;11.00;55.00
9057;DHT22;4563;54.756;9.400;2023-05-18T03:40:23;11.00;55.00
9057;DHT22;4563;54.756;9.400;2023-05-18T03:42:51;11.00;55.00
9057;DHT22;4563;54.756;9.400;2023-05-18T03:45:18;11.00;55.00
9057;DHT22;4563;54.756;9.400;2023-05-18T03:47:45;11.00;55.00
9057;DHT22;4563;54.756;9.400;2023-05-18T03:50:12;11.00;55.00
9057;DHT22;4563;54.756;9.400;2023-05-18T03:52:39;11.00;55.10
9057;DHT22;4563;54.756;9.400;2023-05-18T03:55:06;11.00;55.10
9057;DHT22;4563;54.756;9.400;2023-05-18T03:57:33;11.00;55.20
9057;DHT22;4563;54.756;9.400;2023-05-18T04:00:02;11.00;55.10
9057;DHT22;4563;54.756;9.400;2023-05-18T04:02:33;11.10;55.30
9057;DHT22;4563;54.756;9.400;2023-05-18T04:05:00;11.00;55.20
9057;DHT22;4563;54.756;9.400;2023-05-18T04:07:27;11.00;55.20
9057;DHT22;4563;54.756;9.400;2023-05-18T04:09:55;11.00;55.20
9057;DHT22;4563;54.756;9.400;2023-05-18T04:12:22;11.10;55.30
9057;DHT22;4563;54.756;9.400;2023-05-18T04:14:49;11.10;55.30
9057;DHT22;4563;54.756;9.400;2023-05-18T04:17:18;11.10;55.30
9057;DHT22;4563;54.756;9.400;2023-05-18T04:19:47;11.10;55.40
9057;DHT22;4563;54.756;9.400;2023-05-18T04:22:14;11.10;55.40
9057;DHT22;4563;54.756;9.400;2023-05-18T04:24:41;11.10;55.40
9057;DHT22;4563;54.756;9.400;2023-05-18T04:27:10;11.10;55.50
9057;DHT22;4563;54.756;9.400;2023-05-18T04:29:37;11.10;55.40
9057;DHT22;4563;54.756;9.400;2023-05-18T04:32:05;11.10;55.40
9057;DHT22;4563;54.756;9.400;2023-05-18T04:34:34;11.10;55.40
9057;DHT22;4563;54.756;9.400;2023-05-18T04:37:02;11.10;55.50
9057;DHT22;4563;54.756;9.400;2023-05-18T04:39:30;11.20;55.50
9057;DHT22;4563;54.756;9.400;2023-05-18T04:41:57;11.20;55.50
9057;DHT22;4563;54.756;9.400;2023-05-18T04:44:24;11.20;55.60
9057;DHT22;4563;54.756;9.400;2023-05-18T04:46:51;11.20;55.60
9057;DHT22;4563;54.756;9.400;2023-05-18T04:49:18;11.20;55.60
9057;DHT22;4563;54.756;9.400;2023-05-18T04:51:49;11.20;55.60
9057;DHT22;4563;54.756;9.400;2023-05-18T04:54:20;11.30;55.70
9057;DHT22;4563;54.756;9.400;2023-05-18T04:56:48;11.30;55.70
9057;DHT22;4563;54.756;9.400;2023-05-18T04:59:14;11.30;55.70
9057;DHT22;4563;54.756;9.400;2023-05-18T05:01:42;11.30;55.60
9057;DHT22;4563;54.756;9.400;2023-05-18T05:04:08;11.30;55.60
9057;DHT22;4563;54.756;9.400;2023-05-18T05:06:35;11.30;55.50
9057;DHT22;4563;54.756;9.400;2023-05-18T05:09:04;11.40;55.60
9057;DHT22;4563;54.756;9.400;2023-05-18T05:11:30;11.40;55.60
9057;DHT22;4563;54.756;9.400;2023-05-18T05:13:57;11.40;55.50
9057;DHT22;4563;54.756;9.400;2023-05-18T05:16:24;11.40;55.50
9057;DHT22;4563;54.756;9.400;2023-05-18T05:18:51;11.50;55.50
9057;DHT22;4563;54.756;9.400;2023-05-18T05:21:18;11.40;55.40
9057;DHT22;4563;54.756;9.400;2023-05-18T05:23:44;11.50;55.50
9057;DHT22;4563;54.756;9.400;2023-05-18T05:26:13;11.50;55.50
9057;DHT22;4563;54.756;9.400;2023-05-18T05:28:39;11.50;55.50
9057;DHT22;4563;54.756;9.400;2023-05-18T05:31:06;11.50;55.50
9057;DHT22;4563;54.756;9.400;2023-05-18T05:33:34;11.60;55.60
9057;DHT22;4563;54.756;9.400;2023-05-18T05:36:01;11.60;55.60
9057;DHT22;4563;54.756;9.400;2023-05-18T05:38:29;11.60;55.60
9057;DHT22;4563;54.756;9.400;2023-05-18T05:40:56;11.60;55.70
9057;DHT22;4563;54.756;9.400;2023-05-18T05:43:24;11.70;55.70
9057;DHT22;4563;54.756;9.400;2023-05-18T05:45:51;11.70;55.70
9057;DHT22;4563;54.756;9.400;2023-05-18T05:48:18;11.70;55.70
9057;DHT22;4563;54.756;9.400;2023-05-18T05:50:45;11.80;55.80
9057;DHT22;4563;54.756;9.400;2023-05-18T05:53:11;11.80;55.70
9057;DHT22;4563;54.756;9.400;2023-05-18T05:55:42;11.80;55.60
9057;DHT22;4563;54.756;9.400;2023-05-18T05:58:09;11.90;55.60
9057;DHT22;4563;54.756;9.400;2023-05-18T06:00:37;11.90;55.60
9057;DHT22;4563;54.756;9.400;2023-05-18T06:03:04;11.90;55.70
9057;DHT22;4563;54.756;9.400;2023-05-18T06:05:30;12.00;55.80
9057;DHT22;4563;54.756;9.400;2023-05-18T06:07:57;12.00;55.70
9057;DHT22;4563;54.756;9.400;2023-05-18T06:10:24;12.10;55.70
9057;DHT22;4563;54.756;9.400;2023-05-18T06:12:51;12.10;55.60
9057;DHT22;4563;54.756;9.400;2023-05-18T06:15:18;12.10;55.50
9057;DHT22;4563;54.756;9.400;2023-05-18T06:17:46;12.20;55.50
9057;DHT22;4563;54.756;9.400;2023-05-18T06:20:13;12.20;55.40
9057;DHT22;4563;54.756;9.400;2023-05-18T06:22:40;12.30;55.50
9057;DHT22;4563;54.756;9.400;2023-05-18T06:25:08;12.30;55.30
9057;DHT22;4563;54.756;9.400;2023-05-18T06:27:36;12.40;55.30
9057;DHT22;4563;54.756;9.400;2023-05-18T06:30:04;12.40;55.30
9057;DHT22;4563;54.756;9.400;2023-05-18T06:32:32;12.40;55.30
9057;DHT22;4563;54.756;9.400;2023-05-18T06:35:02;12.50;55.40
9057;DHT22;4563;54.756;9.400;2023-05-18T06:37:29;12.50;55.90
9057;DHT22;4563;54.756;9.400;2023-05-18T06:39:59;12.60;55.20
9057;DHT22;4563;54.756;9.400;2023-05-18T06:42:25;12.60;55.20
9057;DHT22;4563;54.756;9.400;2023-05-18T06:44:52;12.60;55.00
9057;DHT22;4563;54.756;9.400;2023-05-18T06:47:19;12.70;55.10
9057;DHT22;4563;54.756;9.400;2023-05-18T06:49:46;12.70;55.00
9057;DHT22;4563;54.756;9.400;2023-05-18T06:52:14;12.70;54.90
9057;DHT22;4563;54.756;9.400;2023-05-18T06:54:41;12.80;54.90
9057;DHT22;4563;54.756;9.400;2023-05-18T06:57:08;12.90;54.90
9057;DHT22;4563;54.756;9.400;2023-05-18T06:59:35;12.90;54.90
9057;DHT22;4563;54.756;9.400;2023-05-18T07:02:02;12.90;54.80
9057;DHT22;4563;54.756;9.400;2023-05-18T07:04:29;13.00;54.90
9057;DHT22;4563;54.756;9.400;2023-05-18T07:06:56;13.00;54.80
9057;DHT22;4563;54.756;9.400;2023-05-18T07:09:24;13.10;54.80
9057;DHT22;4563;54.756;9.400;2023-05-18T07:11:51;13.10;55.30
9057;DHT22;4563;54.756;9.400;2023-05-18T07:14:18;13.10;54.70
9057;DHT22;4563;54.756;9.400;2023-05-18T07:16:44;13.20;54.80
9057;DHT22;4563;54.756;9.400;2023-05-18T07:19:11;13.20;54.80
9057;DHT22;4563;54.756;9.400;2023-05-18T07:21:38;13.30;54.60
9057;DHT22;4563;54.756;9.400;2023-05-18T07:24:06;13.30;54.60
9057;DHT22;4563;54.756;9.400;2023-05-18T07:26:34;13.40;54.60
9057;DHT22;4563;54.756;9.400;2023-05-18T07:29:01;13.40;54.70
9057;DHT22;4563;54.756;9.400;2023-05-18T07:31:28;13.40;54.80
9057;DHT22;4563;54.756;9.400;2023-05-18T07:33:55;13.50;54.90
9057;DHT22;4563;54.756;9.400;2023-05-18T07:36:22;13.60;55.10
9057;DHT22;4563;54.756;9.400;2023-05-18T07:38:50;13.70;55.30
9057;DHT22;4563;54.756;9.400;2023-05-18T07:41:19;13.80;55.40
9057;DHT22;4563;54.756;9.400;2023-05-18T07:43:49;13.90;55.50
9057;DHT22;4563;54.756;9.400;2023-05-18T07:46:16;14.00;55.60
9057;DHT22;4563;54.756;9.400;2023-05-18T07:48:43;14.20;55.90
9057;DHT22;4563;54.756;9.400;2023-05-18T07:51:10;14.40;55.90
9057;DHT22;4563;54.756;9.400;2023-05-18T07:53:37;14.60;56.00
9057;DHT22;4563;54.756;9.400;2023-05-18T07:56:06;14.80;56.00
9057;DHT22;4563;54.756;9.400;2023-05-18T07:58:33;15.00;55.80
9057;DHT22;4563;54.756;9.400;2023-05-18T08:01:01;15.20;55.90
9057;DHT22;4563;54.756;9.400;2023-05-18T08:03:28;15.50;56.20
9057;DHT22;4563;54.756;9.400;2023-05-18T08:05:55;15.70;56.30
9057;DHT22;4563;54.756;9.400;2023-05-18T08:08:21;16.00;56.30
9057;DHT22;4563;54.756;9.400;2023-05-18T08:10:49;16.20;56.10
9057;DHT22;4563;54.756;9.400;2023-05-18T08:13:17;16.50;56.20
9057;DHT22;4563;54.756;9.400;2023-05-18T08:15:45;16.80;56.10
9057;DHT22;4563;54.756;9.400;2023-05-18T08:18:13;17.00;56.30
9057;DHT22;4563;54.756;9.400;2023-05-18T08:20:40;17.40;56.70
9057;DHT22;4563;54.756;9.400;2023-05-18T08:23:08;17.60;56.50
9057;DHT22;4563;54.756;9.400;2023-05-18T08:25:35;17.90;56.50
9057;DHT22;4563;54.756;9.400;2023-05-18T08:28:02;18.20;56.30
9057;DHT22;4563;54.756;9.400;2023-05-18T08:30:29;18.50;56.20
9057;DHT22;4563;54.756;9.400;2023-05-18T08:32:56;18.80;56.10
9057;DHT22;4563;54.756;9.400;2023-05-18T08:35:24;19.10;55.90
9057;DHT22;4563;54.756;9.400;2023-05-18T08:37:51;19.40;56.40
9057;DHT22;4563;54.756;9.400;2023-05-18T08:40:18;19.60;55.60
9057;DHT22;4563;54.756;9.400;2023-05-18T08:42:49;19.90;55.40
9057;DHT22;4563;54.756;9.400;2023-05-18T08:45:21;20.20;55.80
9057;DHT22;4563;54.756;9.400;2023-05-18T08:47:49;20.40;56.80
9057;DHT22;4563;54.756;9.400;2023-05-18T08:50:19;20.70;54.70
9057;DHT22;4563;54.756;9.400;2023-05-18T08:52:50;20.90;55.90
9057;DHT22;4563;54.756;9.400;2023-05-18T08:55:20;21.10;56.50
9057;DHT22;4563;54.756;9.400;2023-05-18T08:57:51;21.40;54.80
9057;DHT22;4563;54.756;9.400;2023-05-18T09:00:21;21.60;54.60
9057;DHT22;4563;54.756;9.400;2023-05-18T09:02:48;21.80;54.50
9057;DHT22;4563;54.756;9.400;2023-05-18T09:05:16;22.10;53.60
9057;DHT22;4563;54.756;9.400;2023-05-18T09:07:43;22.30;53.10
9057;DHT22;4563;54.756;9.400;2023-05-18T09:10:13;22.50;53.10
9057;DHT22;4563;54.756;9.400;2023-05-18T09:12:41;22.70;53.70
9057;DHT22;4563;54.756;9.400;2023-05-18T09:15:11;23.00;53.40
9057;DHT22;4563;54.756;9.400;2023-05-18T09:17:38;23.20;53.10
9057;DHT22;4563;54.756;9.400;2023-05-18T09:20:06;23.40;52.50
9057;DHT22;4563;54.756;9.400;2023-05-18T09:22:34;23.60;52.00
9057;DHT22;4563;54.756;9.400;2023-05-18T09:25:01;23.90;51.90
9057;DHT22;4563;54.756;9.400;2023-05-18T09:27:29;24.10;51.90
9057;DHT22;4563;54.756;9.400;2023-05-18T09:29:57;24.20;52.00
9057;DHT22;4563;54.756;9.400;2023-05-18T09:32:25;24.50;51.70
9057;DHT22;4563;54.756;9.400;2023-05-18T09:34:52;24.60;50.90
9057;DHT22;4563;54.756;9.400;2023-05-18T09:37:20;24.90;50.80
9057;DHT22;4563;54.756;9.400;2023-05-18T09:39:57;25.10;50.90
9057;DHT22;4563;54.756;9.400;2023-05-18T09:42:26;25.30;57.70
9057;DHT22;4563;54.756;9.400;2023-05-18T09:44:55;25.50;51.00
9057;DHT22;4563;54.756;9.400;2023-05-18T09:47:22;25.70;51.60
9057;DHT22;4563;54.756;9.400;2023-05-18T09:49:48;25.90;50.30
9057;DHT22;4563;54.756;9.400;2023-05-18T09:52:15;26.10;49.60
9057;DHT22;4563;54.756;9.400;2023-05-18T09:54:42;26.30;49.50
9057;DHT22;4563;54.756;9.400;2023-05-18T09:57:09;26.50;49.10
9057;DHT22;4563;54.756;9.400;2023-05-18T09:59:36;26.70;48.60
9057;DHT22;4563;54.756;9.400;2023-05-18T10:02:04;26.90;48.40
9057;DHT22;4563;54.756;9.400;2023-05-18T10:04:37;27.00;48.30
9057;DHT22;4563;54.756;9.400;2023-05-18T10:07:09;27.20;50.10
9057;DHT22;4563;54.756;9.400;2023-05-18T10:09:37;27.40;51.10
9057;DHT22;4563;54.756;9.400;2023-05-18T10:12:09;27.50;47.40
9057;DHT22;4563;54.756;9.400;2023-05-18T10:14:37;27.60;51.30
9057;DHT22;4563;54.756;9.400;2023-05-18T10:17:06;27.80;46.60
9057;DHT22;4563;54.756;9.400;2023-05-18T10:19:34;27.90;46.40
9057;DHT22;4563;54.756;9.400;2023-05-18T10:22:02;28.10;46.00
9057;DHT22;4563;54.756;9.400;2023-05-18T10:24:30;28.10;45.70
9057;DHT22;4563;54.756;9.400;2023-05-18T10:27:01;28.20;45.60
9057;DHT22;4563;54.756;9.400;2023-05-18T10:29:31;28.40;45.40
9057;DHT22;4563;54.756;9.400;2023-05-18T10:32:00;28.60;45.40
9057;DHT22;4563;54.756;9.400;2023-05-18T10:34:31;28.60;45.00
9057;DHT22;4563;54.756;9.400;2023-05-18T10:37:02;28.80;45.10
9057;DHT22;4563;54.756;9.400;2023-05-18T10:39:31;28.90;45.10
9057;DHT22;4563;54.756;9.400;2023-05-18T10:41:59;29.00;44.70
9057;DHT22;4563;54.756;9.400;2023-05-18T10:44:28;29.20;44.20
9057;DHT22;4563;54.756;9.400;2023-05-18T10:46:56;29.30;44.30
9057;DHT22;4563;54.756;9.400;2023-05-18T10:49:25;29.40;44.00
9057;DHT22;4563;54.756;9.400;2023-05-18T10:51:55;29.60;44.10
9057;DHT22;4563;54.756;9.400;2023-05-18T10:54:23;29.70;45.10
9057;DHT22;4563;54.756;9.400;2023-05-18T10:56:51;29.80;43.60
9057;DHT22;4563;54.756;9.400;2023-05-18T10:59:19;29.90;43.20
9057;DHT22;4563;54.756;9.400;2023-05-18T11:01:49;30.00;42.50
9057;DHT22;4563;54.756;9.400;2023-05-18T11:04:22;30.20;42.80
9057;DHT22;4563;54.756;9.400;2023-05-18T11:06:56;30.30;45.00
9057;DHT22;4563;54.756;9.400;2023-05-18T11:09:23;30.50;47.60
9057;DHT22;4563;54.756;9.400;2023-05-18T11:11:51;30.60;42.10
9057;DHT22;4563;54.756;9.400;2023-05-18T11:14:24;30.70;41.60
9057;DHT22;4563;54.756;9.400;2023-05-18T11:16:53;30.80;43.80
9057;DHT22;4563;54.756;9.400;2023-05-18T11:19:24;30.90;41.50
9057;DHT22;4563;54.756;9.400;2023-05-18T11:21:53;31.00;42.80
9057;DHT22;4563;54.756;9.400;2023-05-18T11:24:23;31.10;40.70
9057;DHT22;4563;54.756;9.400;2023-05-18T11:26:52;31.20;41.30
9057;DHT22;4563;54.756;9.400;2023-05-18T11:29:21;31.20;40.80
9057;DHT22;4563;54.756;9.400;2023-05-18T11:31:50;31.20;40.80
9057;DHT22;4563;54.756;9.400;2023-05-18T11:34:36;31.30;40.30
9057;DHT22;4563;54.756;9.400;2023-05-18T11:37:10;31.40;50.20
9057;DHT22;4563;54.756;9.400;2023-05-18T11:39:37;31.40;42.90
9057;DHT22;4563;54.756;9.400;2023-05-18T11:42:06;31.40;40.20
9057;DHT22;4563;54.756;9.400;2023-05-18T11:44:34;31.50;39.60
9057;DHT22;4563;54.756;9.400;2023-05-18T11:47:02;31.50;39.80
9057;DHT22;4563;54.756;9.400;2023-05-18T11:49:30;31.50;39.90
9057;DHT22;4563;54.756;9.400;2023-05-18T11:52:05;31.50;39.80
9057;DHT22;4563;54.756;9.400;2023-05-18T11:54:38;31.50;41.90
9057;DHT22;4563;54.756;9.400;2023-05-18T11:57:09;31.50;42.00
9057;DHT22;4563;54.756;9.400;2023-05-18T11:59:37;31.50;39.90
9057;DHT22;4563;54.756;9.400;2023-05-18T12:02:04;31.50;39.60
9057;DHT22;4563;54.756;9.400;2023-05-18T12:04:32;31.40;39.50
9057;DHT22;4563;54.756;9.400;2023-05-18T12:07:04;31.40;40.00
9057;DHT22;4563;54.756;9.400;2023-05-18T12:09:34;31.30;40.80
9057;DHT22;4563;54.756;9.400;2023-05-18T12:12:01;31.20;39.50
9057;DHT22;4563;54.756;9.400;2023-05-18T12:14:28;31.20;39.60
9057;DHT22;4563;54.756;9.400;2023-05-18T12:16:57;31.10;39.50
9057;DHT22;4563;54.756;9.400;2023-05-18T12:19:25;31.00;39.40
9057;DHT22;4563;54.756;9.400;2023-05-18T12:21:52;30.90;39.70
9057;DHT22;4563;54.756;9.400;2023-05-18T12:24:19;30.80;39.70
9057;DHT22;4563;54.756;9.400;2023-05-18T12:26:47;30.70;39.70
9057;DHT22;4563;54.756;9.400;2023-05-18T12:29:17;30.60;39.60
9057;DHT22;4563;54.756;9.400;2023-05-18T12:31:47;30.40;39.90
9057;DHT22;4563;54.756;9.400;2023-05-18T12:34:14;30.30;40.20
9057;DHT22;4563;54.756;9.400;2023-05-18T12:36:50;30.10;40.00
9057;DHT22;4563;54.756;9.400;2023-05-18T12:39:18;30.00;42.70
9057;DHT22;4563;54.756;9.400;2023-05-18T12:41:48;29.90;39.90
9057;DHT22;4563;54.756;9.400;2023-05-18T12:44:17;29.80;39.90
9057;DHT22;4563;54.756;9.400;2023-05-18T12:46:44;29.70;39.80
9057;DHT22;4563;54.756;9.400;2023-05-18T12:49:11;29.60;39.90
9057;DHT22;4563;54.756;9.400;2023-05-18T12:51:38;29.50;40.10
9057;DHT22;4563;54.756;9.400;2023-05-18T12:54:06;29.40;39.60
9057;DHT22;4563;54.756;9.400;2023-05-18T12:56:51;29.30;40.10
9057;DHT22;4563;54.756;9.400;2023-05-18T12:59:24;29.20;44.90
9057;DHT22;4563;54.756;9.400;2023-05-18T13:01:51;29.10;40.00
9057;DHT22;4563;54.756;9.400;2023-05-18T13:04:18;28.90;39.80
9057;DHT22;4563;54.756;9.400;2023-05-18T13:06:45;28.90;40.20
9057;DHT22;4563;54.756;9.400;2023-05-18T13:09:14;28.70;39.70
9057;DHT22;4563;54.756;9.400;2023-05-18T13:11:45;28.50;39.70
9057;DHT22;4563;54.756;9.400;2023-05-18T13:14:19;28.40;40.80
9057;DHT22;4563;54.756;9.400;2023-05-18T13:16:49;28.30;41.50
9057;DHT22;4563;54.756;9.400;2023-05-18T13:19:17;28.20;40.30
9057;DHT22;4563;54.756;9.400;2023-05-18T13:21:44;28.10;40.80
9057;DHT22;4563;54.756;9.400;2023-05-18T13:24:11;27.90;40.70
9057;DHT22;4563;54.756;9.400;2023-05-18T13:26:38;27.90;40.70
9057;DHT22;4563;54.756;9.400;2023-05-18T13:29:06;27.70;40.90
9057;DHT22;4563;54.756;9.400;2023-05-18T13:31:34;27.60;41.00
9057;DHT22;4563;54.756;9.400;2023-05-18T13:34:01;27.50;40.80
9057;DHT22;4563;54.756;9.400;2023-05-18T13:36:29;27.40;41.00
9057;DHT22;4563;54.756;9.400;2023-05-18T13:38:58;27.30;41.10
9057;DHT22;4563;54.756;9.400;2023-05-18T13:41:26;27.10;41.10
9057;DHT22;4563;54.756;9.400;2023-05-18T13:43:52;27.00;41.20
9057;DHT22;4563;54.756;9.400;2023-05-18T13:46:19;26.90;41.30
9057;DHT22;4563;54.756;9.400;2023-05-18T13:48:47;26.80;41.60
9057;DHT22;4563;54.756;9.400;2023-05-18T13:51:14;26.70;41.60
9057;DHT22;4563;54.756;9.400;2023-05-18T13:53:41;26.60;41.70
9057;DHT22;4563;54.756;9.400;2023-05-18T13:56:08;26.40;41.80
9057;DHT22;4563;54.756;9.400;2023-05-18T13:58:35;26.30;41.80
9057;DHT22;4563;54.756;9.400;2023-05-18T14:01:05;26.20;42.00
9057;DHT22;4563;54.756;9.400;2023-05-18T14:03:33;26.10;42.30
9057;DHT22;4563;54.756;9.400;2023-05-18T14:06:03;26.00;42.30
9057;DHT22;4563;54.756;9.400;2023-05-18T14:08:29;25.90;42.20
9057;DHT22;4563;54.756;9.400;2023-05-18T14:10:56;25.80;42.40
9057;DHT22;4563;54.756;9.400;2023-05-18T14:13:23;25.70;42.60
9057;DHT22;4563;54.756;9.400;2023-05-18T14:15:50;25.60;42.50
9057;DHT22;4563;54.756;9.400;2023-05-18T14:18:17;25.50;42.50
9057;DHT22;4563;54.756;9.400;2023-05-18T14:20:43;25.40;42.60
9057;DHT22;4563;54.756;9.400;2023-05-18T14:23:13;25.30;42.70
9057;DHT22;4563;54.756;9.400;2023-05-18T14:25:40;25.20;42.60
9057;DHT22;4563;54.756;9.400;2023-05-18T14:28:10;25.10;42.80
9057;DHT22;4563;54.756;9.400;2023-05-18T14:30:37;25.00;42.90
9057;DHT22;4563;54.756;9.400;2023-05-18T14:33:04;24.90;43.00
9057;DHT22;4563;54.756;9.400;2023-05-18T14:35:31;24.80;43.00
9057;DHT22;4563;54.756;9.400;2023-05-18T14:37:58;24.70;43.10
9057;DHT22;4563;54.756;9.400;2023-05-18T14:40:26;24.60;43.00
9057;DHT22;4563;54.756;9.400;2023-05-18T14:42:53;24.50;43.10
9057;DHT22;4563;54.756;9.400;2023-05-18T14:45:20;24.50;43.50
9057;DHT22;4563;54.756;9.400;2023-05-18T14:47:47;24.40;43.50
9057;DHT22;4563;54.756;9.400;2023-05-18T14:50:14;24.30;43.80
9057;DHT22;4563;54.756;9.400;2023-05-18T14:52:41;24.30;43.70
9057;DHT22;4563;54.756;9.400;2023-05-18T14:55:08;24.20;43.60
9057;DHT22;4563;54.756;9.400;2023-05-18T14:57:36;24.20;43.70
9057;DHT22;4563;54.756;9.400;2023-05-18T15:00:04;24.10;43.60
9057;DHT22;4563;54.756;9.400;2023-05-18T15:02:31;24.10;43.70
9057;DHT22;4563;54.756;9.400;2023-05-18T15:04:58;24.00;43.80
9057;DHT22;4563;54.756;9.400;2023-05-18T15:07:24;24.00;40.70
9057;DHT22;4563;54.756;9.400;2023-05-18T15:09:51;23.90;43.40
9057;DHT22;4563;54.756;9.400;2023-05-18T15:12:19;23.80;43.60
9057;DHT22;4563;54.756;9.400;2023-05-18T15:14:49;23.80;43.80
9057;DHT22;4563;54.756;9.400;2023-05-18T15:17:16;23.80;43.80
9057;DHT22;4563;54.756;9.400;2023-05-18T15:19:43;23.70;44.00
9057;DHT22;4563;54.756;9.400;2023-05-18T15:22:10;23.60;44.50
9057;DHT22;4563;54.756;9.400;2023-05-18T15:24:36;23.60;44.10
9057;DHT22;4563;54.756;9.400;2023-05-18T15:27:04;23.60;44.30
9057;DHT22;4563;54.756;9.400;2023-05-18T15:29:31;23.50;44.40
9057;DHT22;4563;54.756;9.400;2023-05-18T15:32:01;23.40;44.50
9057;DHT22;4563;54.756;9.400;2023-05-18T15:34:27;23.40;44.80
9057;DHT22;4563;54.756;9.400;2023-05-18T15:36:58;23.40;44.90
9057;DHT22;4563;54.756;9.400;2023-05-18T15:39:25;23.30;44.70
9057;DHT22;4563;54.756;9.400;2023-05-18T15:41:51;23.20;44.70
9057;DHT22;4563;54.756;9.400;2023-05-18T15:44:18;23.20;44.90
9057;DHT22;4563;54.756;9.400;2023-05-18T15:46:45;23.10;45.00
9057;DHT22;4563;54.756;9.400;2023-05-18T15:49:13;23.00;45.00
9057;DHT22;4563;54.756;9.400;2023-05-18T15:51:40;22.90;45.00
9057;DHT22;4563;54.756;9.400;2023-05-18T15:54:07;22.90;45.40
9057;DHT22;4563;54.756;9.400;2023-05-18T15:56:34;22.80;45.40
9057;DHT22;4563;54.756;9.400;2023-05-18T15:59:01;22.80;45.60
9057;DHT22;4563;54.756;9.400;2023-05-18T16:01:28;22.70;46.20
9057;DHT22;4563;54.756;9.400;2023-05-18T16:03:55;22.70;45.70
9057;DHT22;4563;54.756;9.400;2023-05-18T16:06:23;22.50;45.70
9057;DHT22;4563;54.756;9.400;2023-05-18T16:08:50;22.50;45.70